createdAt,value
2022-08-09T00:00:34.106Z,74
2022-08-09T00:02:10.431Z,74
2022-08-09T00:03:46.756Z,74.5
2022-08-09T00:05:23.090Z,74.5
2022-08-09T00:06:59.429Z,74.5
2022-08-09T00:08:35.755Z,74.5
2022-08-09T00:10:12.083Z,74.5
2022-08-09T00:11:47.446Z,75
2022-08-09T00:13:22.790Z,75
2022-08-09T00:14:59.126Z,75
2022-08-09T00:16:35.456Z,75
2022-08-09T00:18:11.786Z,75
2022-08-09T00:19:48.113Z,75.5
2022-08-09T00:21:24.448Z,75.5
2022-08-09T00:22:59.803Z,75.5
2022-08-09T00:24:35.156Z,75.5
2022-08-09T00:26:11.475Z,75.5
2022-08-09T00:27:47.810Z,75.5
2022-08-09T00:29:24.138Z,75.5
2022-08-09T00:31:00.468Z,75.5
2022-08-09T00:32:36.818Z,75.5
2022-08-09T00:34:13.141Z,75.5
2022-08-09T00:35:49.460Z,76
2022-08-09T00:37:25.790Z,76
2022-08-09T00:39:02.131Z,76
2022-08-09T00:40:38.460Z,76
2022-08-09T00:42:14.781Z,76.5
2022-08-09T00:44:07.848Z,76.5
2022-08-09T00:45:26.475Z,77
2022-08-09T00:47:02.797Z,77
2022-08-09T00:48:39.125Z,77
2022-08-09T00:50:15.456Z,77.5
2022-08-09T00:51:51.791Z,77.5
2022-08-09T00:53:28.125Z,77.5
2022-08-09T00:55:04.456Z,77.5
2022-08-09T00:56:40.778Z,77.5
2022-08-09T00:58:17.125Z,78
2022-08-09T00:59:53.451Z,78
2022-08-09T01:01:29.764Z,78
2022-08-09T01:03:06.103Z,78
2022-08-09T01:04:42.444Z,78
2022-08-09T01:06:17.770Z,78
2022-08-09T01:07:54.113Z,78.5
2022-08-09T01:09:30.441Z,78.5
2022-08-09T01:11:06.773Z,78.5
2022-08-09T01:12:43.100Z,78.5
2022-08-09T01:14:19.424Z,78.5
2022-08-09T01:15:55.763Z,78.5
2022-08-09T01:17:32.098Z,78.5
2022-08-09T01:19:08.425Z,78.5
2022-08-09T01:20:44.762Z,79
2022-08-09T01:22:21.082Z,79
2022-08-09T01:23:57.409Z,79
2022-08-09T01:25:33.749Z,79.5
2022-08-09T01:27:09.093Z,79.5
2022-08-09T01:28:45.423Z,80
2022-08-09T01:30:21.757Z,80
2022-08-09T01:31:58.088Z,80
2022-08-09T01:33:34.418Z,80
2022-08-09T01:35:10.745Z,80
2022-08-09T01:36:47.079Z,80.5
2022-08-09T01:38:23.412Z,80.5
2022-08-09T01:39:59.735Z,81
2022-08-09T01:41:36.074Z,81
2022-08-09T01:43:12.416Z,81
2022-08-09T01:44:48.722Z,81
2022-08-09T01:46:25.071Z,81
2022-08-09T01:48:00.412Z,81.5
2022-08-09T01:49:36.741Z,81.5
2022-08-09T01:51:13.063Z,81.5
2022-08-09T01:52:49.400Z,81.5
2022-08-09T01:54:25.732Z,82
2022-08-09T01:56:02.064Z,82
2022-08-09T01:57:38.396Z,82
2022-08-09T01:59:14.725Z,82
2022-08-09T02:00:51.053Z,82
2022-08-09T02:02:27.385Z,82
2022-08-09T02:04:03.753Z,82.5
2022-08-09T02:05:40.060Z,82.5
2022-08-09T02:07:16.377Z,82.5
2022-08-09T02:08:52.708Z,82.5
2022-08-09T02:10:28.061Z,82.5
2022-08-09T02:12:04.385Z,83
2022-08-09T02:13:40.713Z,83
2022-08-09T02:15:17.049Z,83
2022-08-09T02:16:53.376Z,83
2022-08-09T02:18:29.711Z,83
2022-08-09T02:20:06.045Z,83.5
2022-08-09T02:21:42.371Z,83.5
2022-08-09T02:23:18.697Z,83.5
2022-08-09T02:24:55.029Z,83.5
2022-08-09T02:26:31.367Z,83.5
2022-08-09T02:28:07.694Z,83.5
2022-08-09T02:29:44.022Z,83.5
2022-08-09T02:31:19.386Z,83.5
2022-08-09T02:32:55.706Z,84
2022-08-09T02:34:32.036Z,84
2022-08-09T02:36:08.364Z,84
2022-08-09T02:37:44.701Z,84
2022-08-09T02:39:21.033Z,84
2022-08-09T02:40:57.366Z,84
2022-08-09T02:42:33.706Z,84
2022-08-09T02:44:10.025Z,84
2022-08-09T02:45:46.351Z,84.5
2022-08-09T02:47:22.676Z,84.5
2022-08-09T02:48:59.012Z,84.5
2022-08-09T02:50:35.343Z,85
2022-08-09T02:52:11.679Z,85
2022-08-09T02:53:47.013Z,85.5
2022-08-09T02:55:23.348Z,85.5
2022-08-09T02:56:59.699Z,85.5
2022-08-09T02:58:36.017Z,85.5
2022-08-09T03:00:12.349Z,86
2022-08-09T03:01:48.679Z,86
2022-08-09T03:03:25.025Z,86
2022-08-09T03:05:01.341Z,86
2022-08-09T03:06:37.672Z,86
2022-08-09T03:08:14.009Z,86
2022-08-09T03:09:50.323Z,86.5
2022-08-09T03:11:26.660Z,86.5
2022-08-09T03:13:02.996Z,86.5
2022-08-09T03:14:38.330Z,86.5
2022-08-09T03:16:14.663Z,87
2022-08-09T03:17:51.002Z,87
2022-08-09T03:19:27.325Z,87
2022-08-09T03:21:03.661Z,87.5
2022-08-09T03:22:39.986Z,87.5
2022-08-09T03:24:16.319Z,87.5
2022-08-09T03:25:52.660Z,87.5
2022-08-09T03:27:28.982Z,87.5
2022-08-09T03:29:05.360Z,87.5
2022-08-09T03:30:41.641Z,87.5
2022-08-09T03:32:17.971Z,87.5
2022-08-09T03:33:54.305Z,87.5
2022-08-09T03:35:29.650Z,88
2022-08-09T03:37:05.998Z,88
2022-08-09T03:38:42.315Z,88
2022-08-09T03:40:18.643Z,88
2022-08-09T03:41:54.980Z,88
2022-08-09T03:43:31.305Z,88
2022-08-09T03:45:07.645Z,88
2022-08-09T03:46:43.970Z,88
2022-08-09T03:48:20.305Z,88
2022-08-09T03:49:56.631Z,88.5
2022-08-09T03:51:32.963Z,88.5
2022-08-09T03:53:09.297Z,88.5
2022-08-09T03:54:45.624Z,89
2022-08-09T03:56:20.976Z,89
2022-08-09T03:57:57.306Z,89.5
2022-08-09T03:59:33.639Z,89.5
2022-08-09T04:01:09.957Z,89.5
2022-08-09T04:02:46.292Z,89.5
2022-08-09T04:04:22.628Z,90
2022-08-09T04:05:58.958Z,90
2022-08-09T04:07:35.289Z,90
2022-08-09T04:09:11.614Z,90
2022-08-09T04:10:47.958Z,90.5
2022-08-09T04:12:24.284Z,90.5
2022-08-09T04:14:00.615Z,90.5
2022-08-09T04:15:36.944Z,90.5
2022-08-09T04:17:12.302Z,90.5
2022-08-09T04:18:48.641Z,90.5
2022-08-09T04:20:24.959Z,90.5
2022-08-09T04:22:01.294Z,91
2022-08-09T04:23:37.621Z,91
2022-08-09T04:25:13.945Z,91
2022-08-09T04:26:50.281Z,91
2022-08-09T04:28:26.610Z,91
2022-08-09T04:30:02.947Z,91
2022-08-09T04:31:39.272Z,91.5
2022-08-09T04:33:15.600Z,91.5
2022-08-09T04:34:51.934Z,91.5
2022-08-09T04:36:28.276Z,91.5
2022-08-09T04:38:04.595Z,92
2022-08-09T04:39:39.947Z,92
2022-08-09T04:41:16.272Z,92
2022-08-09T04:42:52.609Z,92
2022-08-09T04:44:28.930Z,92
2022-08-09T04:46:05.263Z,92
2022-08-09T04:47:41.596Z,92
2022-08-09T04:49:17.927Z,92
2022-08-09T04:50:54.263Z,92
2022-08-09T04:52:30.590Z,92
2022-08-09T04:54:06.917Z,92
2022-08-09T04:55:43.255Z,92
2022-08-09T04:57:19.577Z,92
2022-08-09T04:58:55.909Z,92
2022-08-09T05:00:31.262Z,92
2022-08-09T05:02:07.594Z,91.5
2022-08-09T05:03:43.917Z,91.5
2022-08-09T05:05:20.250Z,91.5
2022-08-09T05:06:56.586Z,92
2022-08-09T05:08:32.905Z,92
2022-08-09T05:10:09.245Z,92
2022-08-09T05:11:45.575Z,92
2022-08-09T05:13:21.901Z,92
2022-08-09T05:14:58.254Z,92.5
2022-08-09T05:16:34.573Z,92.5
2022-08-09T05:18:10.896Z,92.5
2022-08-09T05:19:47.227Z,92.5
2022-08-09T05:21:22.583Z,92.5
2022-08-09T05:22:58.910Z,92.5
2022-08-09T05:24:35.238Z,92.5
2022-08-09T05:26:11.562Z,92.5
2022-08-09T05:27:47.902Z,92.5
2022-08-09T05:29:24.228Z,92.5
2022-08-09T05:31:00.559Z,92.5
2022-08-09T05:32:36.895Z,92.5
2022-08-09T05:34:13.225Z,92
2022-08-09T05:35:49.563Z,92
2022-08-09T05:37:25.887Z,92
2022-08-09T05:39:02.219Z,92
2022-08-09T05:40:38.545Z,91.5
2022-08-09T05:42:13.902Z,91.5
2022-08-09T05:43:50.225Z,91.5
2022-08-09T05:45:26.551Z,91.5
2022-08-09T05:47:02.879Z,91.5
2022-08-09T05:48:39.215Z,91.5
2022-08-09T05:50:15.557Z,91.5
2022-08-09T05:51:51.879Z,91
2022-08-09T05:53:28.206Z,91
2022-08-09T05:55:04.543Z,91
2022-08-09T05:56:40.875Z,91
2022-08-09T05:58:17.199Z,90.5
2022-08-09T05:59:53.532Z,89.5
2022-08-09T06:01:29.867Z,89
2022-08-09T06:03:05.209Z,89
2022-08-09T06:04:41.552Z,88.5
2022-08-09T06:06:17.876Z,87.5
2022-08-09T06:07:54.205Z,87
2022-08-09T06:09:30.536Z,86.5
2022-08-09T06:11:06.874Z,86
2022-08-09T06:12:43.196Z,85.5
2022-08-09T06:14:19.567Z,85
2022-08-09T06:15:55.858Z,85
2022-08-09T06:17:32.194Z,85
2022-08-09T06:19:08.526Z,85
2022-08-09T06:20:44.857Z,84.5
2022-08-09T06:22:21.187Z,84
2022-08-09T06:23:56.524Z,84
2022-08-09T06:25:32.856Z,84.5
2022-08-09T06:27:09.211Z,84.5
2022-08-09T06:28:45.514Z,84.5
2022-08-09T06:30:21.848Z,84
2022-08-09T06:31:58.186Z,83.5
2022-08-09T06:33:34.551Z,83
2022-08-09T06:35:10.842Z,82
2022-08-09T06:36:47.175Z,81
2022-08-09T06:38:23.502Z,80.5
2022-08-09T06:39:59.834Z,79.5
2022-08-09T06:41:36.172Z,79
2022-08-09T06:43:12.503Z,79
2022-08-09T06:44:47.845Z,79
2022-08-09T06:46:24.170Z,80
2022-08-09T06:48:00.517Z,80.5
2022-08-09T06:49:36.841Z,80.5
2022-08-09T06:51:13.170Z,80.5
2022-08-09T06:52:49.497Z,80
2022-08-09T06:54:25.834Z,79.5
2022-08-09T06:56:02.176Z,79.5
2022-08-09T06:57:38.494Z,79
2022-08-09T06:59:14.821Z,79
2022-08-09T07:00:51.147Z,78.5
2022-08-09T07:02:27.481Z,79
2022-08-09T07:04:03.822Z,79
2022-08-09T07:05:39.171Z,78.5
2022-08-09T07:07:15.491Z,78
2022-08-09T07:08:51.833Z,78.5
2022-08-09T07:10:28.153Z,78.5
2022-08-09T07:12:04.491Z,78.5
2022-08-09T07:13:40.809Z,78.5
2022-08-09T07:15:17.150Z,78.5
2022-08-09T07:16:53.481Z,78
2022-08-09T07:18:29.813Z,78
2022-08-09T07:20:06.133Z,78.5
2022-08-09T07:21:42.474Z,78
2022-08-09T07:23:18.795Z,77.5
2022-08-09T07:24:55.137Z,77
2022-08-09T07:26:30.482Z,77.5
2022-08-09T07:28:06.812Z,77.5
2022-08-09T07:29:43.139Z,77
2022-08-09T07:31:19.469Z,76
2022-08-09T07:32:55.802Z,75
2022-08-09T07:34:32.136Z,75
2022-08-09T07:36:08.464Z,75
2022-08-09T07:37:44.796Z,74.5
2022-08-09T07:39:21.132Z,74
2022-08-09T07:40:57.462Z,73
2022-08-09T07:42:33.780Z,72
2022-08-09T07:44:10.119Z,72
2022-08-09T07:45:46.442Z,72
2022-08-09T07:47:21.799Z,72.5
2022-08-09T07:48:58.128Z,73
2022-08-09T07:50:34.455Z,73
2022-08-09T07:52:10.783Z,72
2022-08-09T07:53:47.116Z,71.5
2022-08-09T07:55:23.456Z,71.5
2022-08-09T07:56:59.808Z,71.5
2022-08-09T07:58:36.121Z,71
2022-08-09T08:00:12.434Z,71.5
2022-08-09T08:01:48.768Z,71
2022-08-09T08:03:25.103Z,71
2022-08-09T08:05:01.444Z,71.5
2022-08-09T08:06:37.765Z,71.5
2022-08-09T08:08:13.110Z,71.5
2022-08-09T08:09:49.447Z,70
2022-08-09T08:11:25.771Z,69.5
2022-08-09T08:13:02.099Z,69
2022-08-09T08:14:38.440Z,68
2022-08-09T08:16:14.767Z,69
2022-08-09T08:17:51.100Z,69
2022-08-09T08:19:27.427Z,69
2022-08-09T08:21:03.763Z,69
2022-08-09T08:22:40.082Z,68.5
2022-08-09T08:24:16.417Z,68.5
2022-08-09T08:25:52.753Z,69
2022-08-09T08:27:29.083Z,69
2022-08-09T08:29:04.434Z,69
2022-08-09T08:30:40.758Z,69.5
2022-08-09T08:32:17.091Z,69
2022-08-09T08:33:53.419Z,69.5
2022-08-09T08:35:29.758Z,69
2022-08-09T08:37:06.082Z,68
2022-08-09T08:38:42.417Z,67.5
2022-08-09T08:40:18.741Z,66.5
2022-08-09T08:41:55.094Z,66.5
2022-08-09T08:43:31.410Z,66.5
2022-08-09T08:45:07.739Z,66
2022-08-09T08:46:44.073Z,67
2022-08-09T08:48:20.397Z,67.5
2022-08-09T08:49:55.747Z,68
2022-08-09T08:51:32.080Z,66.5
2022-08-09T08:53:08.409Z,65
2022-08-09T08:54:44.740Z,65
2022-08-09T08:56:21.077Z,65
2022-08-09T08:57:57.408Z,66
2022-08-09T08:59:33.734Z,66.5
2022-08-09T09:01:10.059Z,67
2022-08-09T09:02:46.394Z,66.5
2022-08-09T09:04:22.729Z,65.5
2022-08-09T09:05:59.056Z,65
2022-08-09T09:07:35.387Z,64.5
2022-08-09T09:09:11.709Z,64
2022-08-09T09:10:47.058Z,64
2022-08-09T09:12:23.397Z,64
2022-08-09T09:13:59.718Z,63
2022-08-09T09:15:36.054Z,63
2022-08-09T09:17:12.388Z,62.5
2022-08-09T09:18:48.719Z,62
2022-08-09T09:20:25.046Z,62
2022-08-09T09:22:01.376Z,61
2022-08-09T09:23:37.710Z,60
2022-08-09T09:25:14.041Z,59.5
2022-08-09T09:26:50.373Z,61
2022-08-09T09:28:26.703Z,60.5
2022-08-09T09:30:03.043Z,60.5
2022-08-09T09:31:38.384Z,60
2022-08-09T09:33:14.713Z,60
2022-08-09T09:34:51.039Z,60.5
2022-08-09T09:36:27.379Z,61
2022-08-09T09:38:03.703Z,60.5
2022-08-09T09:39:39.056Z,60
2022-08-09T09:41:15.384Z,57.5
2022-08-09T09:42:51.733Z,58
2022-08-09T09:44:28.049Z,57
2022-08-09T09:46:04.377Z,57.5
2022-08-09T09:47:40.706Z,57
2022-08-09T09:49:17.035Z,58
2022-08-09T09:50:53.375Z,57.5
2022-08-09T09:52:29.702Z,56
2022-08-09T09:54:06.032Z,56.5
2022-08-09T09:55:42.359Z,56
2022-08-09T09:57:18.688Z,56
2022-08-09T09:58:55.061Z,57
2022-08-09T10:00:31.352Z,56
2022-08-09T10:02:07.684Z,56.5
2022-08-09T10:03:43.034Z,55.5
2022-08-09T10:05:19.363Z,55.5
2022-08-09T10:06:55.689Z,54.5
2022-08-09T10:08:32.026Z,55.5
2022-08-09T10:10:08.350Z,55
2022-08-09T10:11:44.686Z,55
2022-08-09T10:13:20.051Z,53.5
2022-08-09T10:14:55.390Z,53.5
2022-08-09T10:16:31.718Z,53.5
2022-08-09T10:18:08.049Z,54
2022-08-09T10:19:44.374Z,53.5
2022-08-09T10:21:20.714Z,53
2022-08-09T10:22:57.045Z,52.5
2022-08-09T10:24:33.372Z,53.5
2022-08-09T10:26:09.701Z,53.5
2022-08-09T10:27:46.041Z,53.5
2022-08-09T10:29:21.402Z,54
2022-08-09T10:30:57.722Z,53.5
2022-08-09T10:32:33.067Z,53
2022-08-09T10:34:09.401Z,52
2022-08-09T10:35:45.730Z,52
2022-08-09T10:37:22.065Z,52
2022-08-09T10:38:58.393Z,52
2022-08-09T10:40:34.726Z,52
2022-08-09T10:42:11.056Z,51
2022-08-09T10:43:47.393Z,51
2022-08-09T10:45:23.721Z,51
2022-08-09T10:47:00.052Z,51.5
2022-08-09T10:48:36.375Z,50
2022-08-09T10:50:12.707Z,50.5
2022-08-09T10:51:49.040Z,51
2022-08-09T10:53:24.388Z,51
2022-08-09T10:55:00.724Z,50.5
2022-08-09T10:56:37.054Z,51
2022-08-09T10:58:13.382Z,50.5
2022-08-09T10:59:49.710Z,50
2022-08-09T11:01:26.038Z,50
2022-08-09T11:03:02.372Z,50
2022-08-09T11:04:38.706Z,50
2022-08-09T11:06:15.040Z,50.5
2022-08-09T11:07:51.369Z,50.5
2022-08-09T11:09:27.692Z,50.5
2022-08-09T11:11:04.027Z,49.5
2022-08-09T11:12:40.369Z,50.5
2022-08-09T11:14:15.701Z,50.5
2022-08-09T11:15:52.038Z,50.5
2022-08-09T11:17:28.381Z,50
2022-08-09T11:19:04.705Z,49.5
2022-08-09T11:20:41.027Z,50
2022-08-09T11:22:17.354Z,50
2022-08-09T11:23:53.690Z,49.5
2022-08-09T11:25:30.024Z,50
2022-08-09T11:27:06.350Z,50
2022-08-09T11:28:42.685Z,49.5
2022-08-09T11:30:19.011Z,49.5
2022-08-09T11:31:55.353Z,49
2022-08-09T11:33:31.675Z,48.5
2022-08-09T11:35:07.016Z,49
2022-08-09T11:36:43.376Z,49.5
2022-08-09T11:38:19.680Z,50
2022-08-09T11:39:56.017Z,50.5
2022-08-09T11:41:32.344Z,50
2022-08-09T11:43:08.673Z,49.5
2022-08-09T11:44:45.003Z,49.5
2022-08-09T11:46:21.343Z,50
2022-08-09T11:47:57.664Z,50.5
2022-08-09T11:49:34.002Z,50
2022-08-09T11:51:10.329Z,50
2022-08-09T11:52:46.663Z,50
2022-08-09T11:54:22.992Z,49.5
2022-08-09T11:55:59.324Z,49
2022-08-09T11:57:35.651Z,49
2022-08-09T11:59:10.998Z,49
2022-08-09T12:00:47.329Z,49
2022-08-09T12:02:23.661Z,49
2022-08-09T12:03:59.998Z,49
2022-08-09T12:05:36.324Z,48.5
2022-08-09T12:07:12.654Z,49
2022-08-09T12:08:48.988Z,48.5
2022-08-09T12:10:25.320Z,48.5
2022-08-09T12:12:01.650Z,48.5
2022-08-09T12:13:37.984Z,48.5
2022-08-09T12:15:14.313Z,48
2022-08-09T12:16:50.637Z,48
2022-08-09T12:18:26.967Z,48
2022-08-09T12:20:02.323Z,48
2022-08-09T12:21:38.660Z,47.5
2022-08-09T12:23:14.988Z,47.5
2022-08-09T12:24:51.314Z,48
2022-08-09T12:26:27.641Z,48
2022-08-09T12:28:03.995Z,47.5
2022-08-09T12:29:40.302Z,48
2022-08-09T12:31:16.631Z,48
2022-08-09T12:32:52.967Z,48
2022-08-09T12:34:29.292Z,48
2022-08-09T12:36:05.623Z,47.5
2022-08-09T12:37:41.959Z,48
2022-08-09T12:39:18.289Z,48
2022-08-09T12:40:53.629Z,48
2022-08-09T12:42:29.977Z,47.5
2022-08-09T12:44:06.301Z,47.5
2022-08-09T12:45:42.639Z,47
2022-08-09T12:47:18.969Z,47.5
2022-08-09T12:48:55.300Z,47.5
2022-08-09T12:50:31.626Z,47
2022-08-09T12:52:07.957Z,47
2022-08-09T12:53:44.281Z,47
2022-08-09T12:55:20.608Z,47.5
2022-08-09T12:56:56.947Z,47.5
2022-08-09T12:58:33.280Z,48
2022-08-09T13:00:09.613Z,47
2022-08-09T13:01:44.951Z,47.5
2022-08-09T13:03:21.287Z,47.5
2022-08-09T13:04:57.619Z,47
2022-08-09T13:06:33.945Z,47
2022-08-09T13:08:10.278Z,47.5
2022-08-09T13:09:46.613Z,46.5
2022-08-09T13:11:22.934Z,47
2022-08-09T13:12:59.273Z,47
2022-08-09T13:14:35.601Z,47
2022-08-09T13:16:11.926Z,46
2022-08-09T13:17:48.263Z,46.5
2022-08-09T13:19:24.598Z,46.5
2022-08-09T13:21:00.927Z,45.5
2022-08-09T13:22:37.256Z,45.5
2022-08-09T13:24:13.585Z,46
2022-08-09T13:25:48.931Z,46.5
2022-08-09T13:27:25.260Z,46.5
2022-08-09T13:29:01.590Z,46.5
2022-08-09T13:30:37.926Z,46
2022-08-09T13:32:14.264Z,46
2022-08-09T13:33:50.587Z,46
2022-08-09T13:35:26.914Z,46
2022-08-09T13:37:03.240Z,46
2022-08-09T13:38:39.577Z,46.5
2022-08-09T13:40:15.919Z,46
2022-08-09T13:41:52.242Z,46
2022-08-09T13:43:28.566Z,45.5
2022-08-09T13:45:04.900Z,45
2022-08-09T13:46:40.253Z,45.5
2022-08-09T13:48:16.577Z,46
2022-08-09T13:49:52.912Z,46
2022-08-09T13:51:29.239Z,45.5
2022-08-09T13:53:05.571Z,46
2022-08-09T13:54:41.908Z,46
2022-08-09T13:56:18.230Z,45
2022-08-09T13:57:54.556Z,45.5
2022-08-09T13:59:30.897Z,45.5
2022-08-09T14:01:07.226Z,45
2022-08-09T14:02:43.559Z,45
2022-08-09T14:04:19.882Z,45.5
2022-08-09T14:05:56.227Z,45.5
2022-08-09T14:07:32.550Z,45.5
2022-08-09T14:09:07.899Z,46
2022-08-09T14:10:44.229Z,46
2022-08-09T14:12:20.555Z,46
2022-08-09T14:13:56.889Z,46
2022-08-09T14:15:33.217Z,46
2022-08-09T14:17:09.554Z,45.5
2022-08-09T14:18:45.871Z,46
2022-08-09T14:20:22.210Z,45.5
2022-08-09T14:21:58.542Z,45.5
2022-08-09T14:23:34.879Z,45.5
2022-08-09T14:25:11.208Z,45.5
2022-08-09T14:26:47.533Z,45.5
2022-08-09T14:28:23.888Z,45
2022-08-09T14:29:59.223Z,45
2022-08-09T14:31:35.556Z,44.5
2022-08-09T14:33:11.870Z,44.5
2022-08-09T14:34:48.208Z,44.5
2022-08-09T14:36:24.539Z,44.5
2022-08-09T14:38:00.872Z,44.5
2022-08-09T14:39:37.203Z,45
2022-08-09T14:41:13.527Z,44.5
2022-08-09T14:42:49.856Z,44
2022-08-09T14:44:26.192Z,44
2022-08-09T14:46:02.525Z,44.5
2022-08-09T14:47:38.855Z,45
2022-08-09T14:49:15.194Z,44.5
2022-08-09T14:50:50.530Z,44.5
2022-08-09T14:52:26.861Z,44.5
2022-08-09T14:54:03.194Z,44.5
2022-08-09T14:55:39.526Z,44.5
2022-08-09T14:57:15.862Z,44.5
2022-08-09T14:58:52.193Z,44.5
2022-08-09T15:00:28.511Z,44.5
2022-08-09T15:02:03.871Z,44.5
2022-08-09T15:03:40.193Z,44
2022-08-09T15:05:16.535Z,43.5
2022-08-09T15:06:52.866Z,43.5
2022-08-09T15:08:29.189Z,43.5
2022-08-09T15:10:05.549Z,44
2022-08-09T15:11:41.863Z,44
2022-08-09T15:13:18.184Z,44
2022-08-09T15:14:54.513Z,44
2022-08-09T15:16:30.847Z,44
2022-08-09T15:18:07.179Z,43.5
2022-08-09T15:19:43.505Z,44
2022-08-09T15:21:19.839Z,42.5
2022-08-09T15:22:55.181Z,43.5
2022-08-09T15:24:31.514Z,43.5
2022-08-09T15:26:07.861Z,43
2022-08-09T15:27:44.189Z,43.5
2022-08-09T15:29:20.509Z,43
2022-08-09T15:30:56.850Z,43.5
2022-08-09T15:32:33.180Z,43.5
2022-08-09T15:34:09.504Z,43
2022-08-09T15:35:45.826Z,42.5
2022-08-09T15:37:22.162Z,42.5
2022-08-09T15:38:58.504Z,43
2022-08-09T15:40:34.828Z,42.5
2022-08-09T15:42:11.156Z,42.5
2022-08-09T15:43:46.503Z,42
2022-08-09T15:45:22.837Z,42.5
2022-08-09T15:46:59.170Z,43
2022-08-09T15:48:35.494Z,43
2022-08-09T15:50:11.818Z,43
2022-08-09T15:51:48.158Z,43
2022-08-09T15:53:24.488Z,43.5
2022-08-09T15:55:00.821Z,43
2022-08-09T15:56:37.150Z,43
2022-08-09T15:58:13.480Z,43
2022-08-09T15:59:49.812Z,43
2022-08-09T16:01:26.143Z,43
2022-08-09T16:03:02.476Z,43.5
2022-08-09T16:04:37.821Z,44
2022-08-09T16:06:14.154Z,44
2022-08-09T16:07:50.478Z,43.5
2022-08-09T16:09:26.807Z,44
2022-08-09T16:11:03.146Z,43.5
2022-08-09T16:12:39.476Z,43.5
2022-08-09T16:14:15.802Z,42
2022-08-09T16:15:52.135Z,43
2022-08-09T16:17:28.463Z,42.5
2022-08-09T16:19:04.791Z,43
2022-08-09T16:20:41.141Z,43
2022-08-09T16:22:17.459Z,42.5
2022-08-09T16:23:53.788Z,42.5
2022-08-09T16:25:29.138Z,42
2022-08-09T16:27:05.469Z,42
2022-08-09T16:28:41.790Z,42.5
2022-08-09T16:30:18.124Z,42.5
2022-08-09T16:31:54.459Z,42.5
2022-08-09T16:33:30.796Z,42.5
2022-08-09T16:35:07.122Z,43.5
2022-08-09T16:36:43.446Z,43.5
2022-08-09T16:38:19.780Z,43.5
2022-08-09T16:39:56.117Z,44
2022-08-09T16:41:32.447Z,44
2022-08-09T16:43:08.784Z,44
2022-08-09T16:44:45.107Z,44
2022-08-09T16:46:20.452Z,43.5
2022-08-09T16:47:56.784Z,43
2022-08-09T16:49:33.111Z,43.5
2022-08-09T16:51:09.438Z,43.5
2022-08-09T16:52:45.780Z,43.5
2022-08-09T16:54:22.105Z,44
2022-08-09T16:55:58.441Z,44
2022-08-09T16:57:34.772Z,44
2022-08-09T16:59:11.112Z,43.5
2022-08-09T17:00:47.431Z,43.5
2022-08-09T17:02:23.765Z,43.5
2022-08-09T17:04:00.094Z,43.5
2022-08-09T17:05:36.417Z,43.5
2022-08-09T17:07:11.774Z,43.5
2022-08-09T17:08:48.100Z,43
2022-08-09T17:10:24.432Z,43.5
2022-08-09T17:12:00.763Z,43.5
2022-08-09T17:13:37.100Z,44
2022-08-09T17:15:13.423Z,44
2022-08-09T17:16:49.753Z,43.5
2022-08-09T17:18:26.085Z,43.5
2022-08-09T17:20:02.433Z,44
2022-08-09T17:21:38.746Z,44
2022-08-09T17:23:15.068Z,44
2022-08-09T17:24:51.408Z,43.5
2022-08-09T17:28:04.081Z,44
2022-08-09T17:29:39.413Z,44
2022-08-09T17:31:15.745Z,44
2022-08-09T17:32:52.083Z,44
2022-08-09T17:34:28.413Z,44
2022-08-09T17:36:04.740Z,44
2022-08-09T17:37:41.079Z,44
2022-08-09T17:39:17.406Z,44.5
2022-08-09T17:40:53.738Z,44.5
2022-08-09T17:42:30.073Z,44.5
2022-08-09T17:44:06.425Z,44.5
2022-08-09T17:45:42.735Z,44.5
2022-08-09T17:47:19.061Z,44.5
2022-08-09T17:48:55.390Z,44.5
2022-08-09T17:50:30.746Z,44
2022-08-09T17:52:07.067Z,44
2022-08-09T17:53:43.396Z,44.5
2022-08-09T17:55:19.727Z,44
2022-08-09T17:56:56.062Z,44
2022-08-09T17:58:32.409Z,44
2022-08-09T18:00:08.724Z,44
2022-08-09T18:01:45.050Z,44
2022-08-09T18:03:21.383Z,44.5
2022-08-09T18:04:57.724Z,44.5
2022-08-09T18:06:34.048Z,45
2022-08-09T18:08:10.378Z,45
2022-08-09T18:09:46.707Z,45
2022-08-09T18:11:22.061Z,45
2022-08-09T18:12:58.385Z,45
2022-08-09T18:14:34.715Z,45
2022-08-09T18:16:11.050Z,45.5
2022-08-09T18:17:47.380Z,45.5
2022-08-09T18:19:23.713Z,45
2022-08-09T18:21:00.042Z,45.5
2022-08-09T18:22:36.373Z,45.5
2022-08-09T18:24:12.699Z,45.5
2022-08-09T18:25:49.035Z,45
2022-08-09T18:27:25.364Z,45.5
2022-08-09T18:29:01.692Z,45.5
2022-08-09T18:30:38.025Z,45.5
2022-08-09T18:32:13.368Z,45.5
2022-08-09T18:33:49.707Z,46
2022-08-09T18:35:26.031Z,45.5
2022-08-09T18:37:02.369Z,45.5
2022-08-09T18:38:38.697Z,46
2022-08-09T18:40:15.022Z,46
2022-08-09T18:41:51.351Z,46
2022-08-09T18:43:27.684Z,46
2022-08-09T18:45:04.021Z,46
2022-08-09T18:46:40.350Z,46
2022-08-09T18:48:16.680Z,46.5
2022-08-09T18:49:53.018Z,46
2022-08-09T18:51:29.346Z,46.5
2022-08-09T18:53:04.690Z,46.5
2022-08-09T18:54:41.015Z,47
2022-08-09T18:56:17.352Z,47
2022-08-09T18:57:53.681Z,47
2022-08-09T18:59:30.012Z,47
2022-08-09T19:01:06.344Z,47
2022-08-09T19:02:42.673Z,47
2022-08-09T19:04:19.012Z,47
2022-08-09T19:05:55.333Z,47
2022-08-09T19:07:31.662Z,47
2022-08-09T19:09:07.994Z,47
2022-08-09T19:10:44.334Z,47
2022-08-09T19:12:20.649Z,47.5
2022-08-09T19:13:56.990Z,47.5
2022-08-09T19:15:32.334Z,47
2022-08-09T19:17:08.663Z,47.5
2022-08-09T19:18:44.997Z,47.5
2022-08-09T19:20:21.328Z,47.5
2022-08-09T19:21:57.659Z,47.5
2022-08-09T19:23:33.984Z,47.5
2022-08-09T19:25:10.312Z,47.5
2022-08-09T19:26:46.649Z,47.5
2022-08-09T19:28:22.981Z,47.5
2022-08-09T19:29:59.310Z,47.5
2022-08-09T19:31:35.640Z,47.5
2022-08-09T19:33:11.973Z,48
2022-08-09T19:34:48.298Z,48
2022-08-09T19:36:23.655Z,48
2022-08-09T19:37:59.983Z,48
2022-08-09T19:39:36.314Z,48
2022-08-09T19:41:12.644Z,48
2022-08-09T19:42:48.971Z,48
2022-08-09T19:44:25.305Z,48
2022-08-09T19:46:01.633Z,48
2022-08-09T19:47:37.966Z,48
2022-08-09T19:49:14.294Z,48.5
2022-08-09T19:50:50.618Z,48.5
2022-08-09T19:52:26.959Z,48.5
2022-08-09T19:54:03.280Z,48.5
2022-08-09T19:55:39.620Z,48.5
2022-08-09T19:57:14.968Z,48.5
2022-08-09T19:58:51.320Z,48.5
2022-08-09T20:00:27.632Z,49
2022-08-09T20:02:03.957Z,49
2022-08-09T20:03:40.289Z,49
2022-08-09T20:05:16.622Z,49
2022-08-09T20:06:52.943Z,49
2022-08-09T20:08:29.281Z,49
2022-08-09T20:10:05.625Z,49
2022-08-09T20:11:41.950Z,49
2022-08-09T20:13:18.276Z,49.5
2022-08-09T20:14:54.604Z,49.5
2022-08-09T20:16:30.927Z,49.5
2022-08-09T20:18:06.278Z,49.5
2022-08-09T20:19:42.600Z,49.5
2022-08-09T20:21:18.936Z,49.5
2022-08-09T20:22:55.275Z,49.5
2022-08-09T20:24:30.630Z,49.5
2022-08-09T20:26:06.954Z,49.5
2022-08-09T20:27:43.282Z,50
2022-08-09T20:29:19.618Z,50
2022-08-09T20:30:55.950Z,50
2022-08-09T20:32:32.281Z,50
2022-08-09T20:34:08.607Z,50.5
2022-08-09T20:35:44.940Z,50.5
2022-08-09T20:37:21.263Z,50.5
2022-08-09T20:38:57.606Z,50.5
2022-08-09T20:40:33.934Z,51
2022-08-09T20:42:10.263Z,51
2022-08-09T20:43:46.592Z,51
2022-08-09T20:45:21.940Z,51.5
2022-08-09T20:46:58.272Z,51.5
2022-08-09T20:48:34.600Z,51.5
2022-08-09T20:50:10.924Z,52
2022-08-09T20:51:47.257Z,52
2022-08-09T20:53:23.595Z,52
2022-08-09T20:54:59.924Z,52
2022-08-09T20:56:36.247Z,52.5
2022-08-09T20:58:12.582Z,52.5
2022-08-09T20:59:48.918Z,52.5
2022-08-09T21:01:25.242Z,52.5
2022-08-09T21:03:01.573Z,53
2022-08-09T21:04:37.906Z,53
2022-08-09T21:06:13.251Z,53
2022-08-09T21:07:49.584Z,53
2022-08-09T21:09:25.910Z,53.5
2022-08-09T21:11:02.238Z,53.5
2022-08-09T21:12:38.584Z,54
2022-08-09T21:14:14.903Z,54
2022-08-09T21:15:51.249Z,54
2022-08-09T21:17:27.574Z,54.5
2022-08-09T21:19:03.901Z,54.5
2022-08-09T21:20:40.225Z,55
2022-08-09T21:22:16.554Z,55
2022-08-09T21:23:52.879Z,55
2022-08-09T21:25:29.219Z,55
2022-08-09T21:27:04.563Z,55.5
2022-08-09T21:28:40.921Z,55.5
2022-08-09T21:30:17.223Z,55.5
2022-08-09T21:31:53.568Z,56
2022-08-09T21:33:29.886Z,56
2022-08-09T21:35:06.222Z,56
2022-08-09T21:36:42.551Z,56.5
2022-08-09T21:38:18.884Z,56.5
2022-08-09T21:39:55.214Z,57
2022-08-09T21:41:31.578Z,57
2022-08-09T21:43:07.870Z,57
2022-08-09T21:44:44.212Z,57
2022-08-09T21:46:20.537Z,57.5
2022-08-09T21:47:55.884Z,57.5
2022-08-09T21:49:32.216Z,58
2022-08-09T21:51:13.232Z,58
2022-08-09T21:52:44.876Z,58
2022-08-09T21:54:21.199Z,58
2022-08-09T21:55:57.537Z,58.5
2022-08-09T21:57:33.871Z,58.5
2022-08-09T21:59:10.199Z,58.5
2022-08-09T22:00:46.532Z,59
2022-08-09T22:02:22.862Z,59
2022-08-09T22:03:59.199Z,59
2022-08-09T22:05:35.533Z,59.5
2022-08-09T22:07:11.854Z,59.5
2022-08-09T22:08:47.203Z,59.5